Time;durP1;ratioP1;P1;durP2;ratioP2;P2;SDS_P1;SDS_P2;PMS_P1;PMS_P2;Temp;Humidity;BMP_temperature;BMP_pressure;BME280_temperature;BME280_humidity;BME280_pressure;Samples;Min_cycle;Max_cycle;Signal;HPM_P1;HPM_P2
2021/09/08 00:00:16;;;;;;;14.05;12.23;;;15.70;99.90;;;;;;5096630;28;20128;-74
2021/09/08 00:02:42;;;;;;;17.75;12.70;;;15.60;99.90;;;;;;5096222;28;20035;-74
2021/09/08 00:05:09;;;;;;;14.25;12.25;;;15.50;99.90;;;;;;5096368;28;20088;-73
2021/09/08 00:07:35;;;;;;;14.65;12.73;;;15.50;99.90;;;;;;5096203;28;20028;-74
2021/09/08 00:10:01;;;;;;;14.10;12.05;;;15.40;99.90;;;;;;5078084;28;20028;-74
2021/09/08 00:12:27;;;;;;;21.38;12.35;;;15.40;99.90;;;;;;5073020;28;20037;-75
2021/09/08 00:14:52;;;;;;;13.27;11.88;;;15.50;99.90;;;;;;5072409;28;20423;-75
2021/09/08 00:17:18;;;;;;;12.98;11.57;;;15.60;99.90;;;;;;5076490;28;20051;-74
2021/09/08 00:19:43;;;;;;;13.38;11.90;;;15.50;99.90;;;;;;5073798;28;20025;-75
2021/09/08 00:22:09;;;;;;;13.32;12.02;;;15.50;99.90;;;;;;5073848;28;20025;-74
2021/09/08 00:24:35;;;;;;;16.00;12.63;;;15.50;99.90;;;;;;5073691;28;20063;-74
2021/09/08 00:27:05;;;;;;;15.45;12.63;;;15.40;99.90;;;;;;5073734;28;20108;-75
2021/09/08 00:29:31;;;;;;;16.73;12.85;;;15.40;99.90;;;;;;5071609;28;20511;-74
2021/09/08 00:32:00;;;;;;;15.07;13.25;;;15.30;99.90;;;;;;5072038;28;20342;-74
2021/09/08 00:34:26;;;;;;;16.17;13.25;;;15.20;99.90;;;;;;5072394;28;20017;-74
2021/09/08 00:36:51;;;;;;;14.68;13.25;;;15.20;99.90;;;;;;5071820;28;20028;-75
2021/09/08 00:39:17;;;;;;;18.05;12.52;;;15.20;99.90;;;;;;5074846;28;20031;-74
2021/09/08 00:41:42;;;;;;;17.90;13.43;;;15.20;99.90;;;;;;5075835;28;20046;-74
2021/09/08 00:44:14;;;;;;;13.55;12.18;;;15.20;99.90;;;;;;5076351;28;20020;-75
2021/09/08 00:46:40;;;;;;;15.70;13.15;;;15.20;99.90;;;;;;5059108;28;20017;-75
2021/09/08 00:49:06;;;;;;;22.25;14.25;;;15.20;99.90;;;;;;5054780;28;20025;-74
2021/09/08 00:51:36;;;;;;;15.30;12.43;;;15.10;99.90;;;;;;5054865;28;20087;-74
2021/09/08 00:54:05;;;;;;;17.77;13.68;;;15.10;99.90;;;;;;5062989;28;20024;-75
2021/09/08 00:56:30;;;;;;;19.25;14.98;;;15.10;99.90;;;;;;5074319;28;20025;-74
2021/09/08 00:58:57;;;;;;;21.75;13.60;;;15.10;99.90;;;;;;5075203;28;20487;-74
2021/09/08 01:01:22;;;;;;;14.30;12.80;;;15.10;99.90;;;;;;5076108;28;20028;-74
2021/09/08 01:03:48;;;;;;;16.35;13.73;;;15.00;99.90;;;;;;5074570;28;20051;-74
2021/09/08 01:06:14;;;;;;;18.13;12.30;;;15.00;99.90;;;;;;5075560;28;20017;-75
2021/09/08 01:08:40;;;;;;;14.63;12.73;;;15.00;99.90;;;;;;5076067;28;20033;-74
2021/09/08 01:11:06;;;;;;;16.65;13.00;;;15.00;99.90;;;;;;5076017;28;20025;-74
2021/09/08 01:13:32;;;;;;;14.70;13.02;;;15.00;99.90;;;;;;5074776;28;20029;-74
2021/09/08 01:16:02;;;;;;;16.48;12.80;;;15.00;99.90;;;;;;5075841;28;20403;-73
2021/09/08 01:18:28;;;;;;;15.88;13.10;;;15.00;99.90;;;;;;5075095;28;20057;-74
2021/09/08 01:20:54;;;;;;;14.63;12.73;;;14.90;99.90;;;;;;5074538;28;20431;-75
2021/09/08 01:23:20;;;;;;;18.17;13.45;;;14.90;99.90;;;;;;5076183;28;20028;-74
2021/09/08 01:25:46;;;;;;;16.27;13.00;;;14.90;99.90;;;;;;5074865;28;20024;-75
2021/09/08 01:28:11;;;;;;;15.70;13.63;;;14.90;99.90;;;;;;5074449;28;20085;-74
2021/09/08 01:30:41;;;;;;;17.08;13.80;;;14.90;99.90;;;;;;5074305;28;20025;-74
2021/09/08 01:33:14;;;;;;;22.35;14.05;;;14.80;99.90;;;;;;5074411;28;20044;-74
2021/09/08 01:35:40;;;;;;;18.52;13.95;;;14.80;99.90;;;;;;5071829;28;20025;-75
2021/09/08 01:38:06;;;;;;;14.63;13.23;;;14.80;99.90;;;;;;5061638;28;20021;-75
2021/09/08 01:40:32;;;;;;;17.23;13.65;;;14.80;99.90;;;;;;5062996;28;20032;-74
2021/09/08 01:42:59;;;;;;;15.63;12.50;;;14.70;99.90;;;;;;5065766;28;20020;-74
2021/09/08 01:45:25;;;;;;;17.50;14.10;;;14.70;99.90;;;;;;5058190;28;20025;-74
2021/09/08 01:47:55;;;;;;;19.20;15.07;;;14.70;99.90;;;;;;5065465;28;20020;-75
2021/09/08 01:50:22;;;;;;;16.45;13.98;;;14.60;99.90;;;;;;5062092;28;20035;-74
2021/09/08 01:52:47;;;;;;;18.50;14.40;;;14.60;99.90;;;;;;5060735;28;20028;-74
2021/09/08 01:55:14;;;;;;;20.13;15.38;;;14.60;99.90;;;;;;5057287;28;20362;-74
2021/09/08 01:57:40;;;;;;;19.48;15.80;;;14.60;99.90;;;;;;5051531;28;20460;-75
2021/09/08 02:00:07;;;;;;;18.30;15.18;;;14.60;99.90;;;;;;5061809;28;20458;-75
2021/09/08 02:02:33;;;;;;;18.38;14.80;;;14.60;99.90;;;;;;5067967;28;20031;-75
2021/09/08 02:04:59;;;;;;;16.48;14.88;;;14.50;99.90;;;;;;5065309;28;20090;-75
2021/09/08 02:07:24;;;;;;;19.50;14.68;;;14.50;99.90;;;;;;5064047;28;20063;-75
2021/09/08 02:09:50;;;;;;;18.88;14.93;;;14.50;99.90;;;;;;5068865;28;20028;-74
2021/09/08 02:12:16;;;;;;;17.27;15.40;;;14.50;99.90;;;;;;5058674;28;20536;-74
2021/09/08 02:14:41;;;;;;;19.90;14.82;;;14.40;99.90;;;;;;5065219;28;20395;-74
2021/09/08 02:17:07;;;;;;;18.80;15.02;;;14.40;99.90;;;;;;5064004;28;20447;-75
2021/09/08 02:19:32;;;;;;;16.15;14.32;;;14.40;99.90;;;;;;5068629;28;20029;-74
2021/09/08 02:21:58;;;;;;;16.75;15.05;;;14.40;99.90;;;;;;5065473;28;20391;-75
2021/09/08 02:24:23;;;;;;;18.35;14.57;;;14.30;99.90;;;;;;5062828;28;20021;-76
2021/09/08 02:26:49;;;;;;;17.27;15.52;;;14.30;99.90;;;;;;5065301;28;20029;-75
2021/09/08 02:29:15;;;;;;;16.40;14.57;;;14.30;99.90;;;;;;5062356;28;20066;-74
2021/09/08 02:31:43;;;;;;;15.48;13.43;;;14.40;99.90;;;;;;5057741;28;20111;-76
2021/09/08 02:34:09;;;;;;;16.80;13.88;;;14.30;99.90;;;;;;5062534;28;20036;-75
2021/09/08 02:36:34;;;;;;;17.85;15.35;;;14.20;99.90;;;;;;5063534;28;20484;-75
2021/09/08 02:39:02;;;;;;;16.27;13.95;;;14.20;99.90;;;;;;5064919;28;20150;-76
2021/09/08 02:41:27;;;;;;;19.75;15.52;;;14.10;99.90;;;;;;5064627;28;20024;-74
2021/09/08 02:43:53;;;;;;;19.60;15.82;;;14.10;99.90;;;;;;5061799;28;20028;-74
2021/09/08 02:46:19;;;;;;;16.52;14.52;;;14.10;99.90;;;;;;5061917;28;20029;-75
2021/09/08 02:48:45;;;;;;;19.30;15.00;;;14.00;99.90;;;;;;5064986;28;20024;-75
2021/09/08 02:51:11;;;;;;;15.95;14.32;;;14.10;99.90;;;;;;5065314;28;20016;-75
2021/09/08 02:53:39;;;;;;;18.70;15.05;;;14.00;99.90;;;;;;5059318;28;20222;-76
2021/09/08 02:56:07;;;;;;;18.10;13.80;;;14.00;99.90;;;;;;5065442;28;20048;-75
2021/09/08 02:58:32;;;;;;;15.95;14.38;;;14.00;99.90;;;;;;5059203;28;20496;-75
2021/09/08 03:00:58;;;;;;;18.60;15.18;;;14.00;99.90;;;;;;5064457;28;20021;-74
2021/09/08 03:03:27;;;;;;;19.15;15.98;;;14.00;99.90;;;;;;5060804;28;20070;-76
2021/09/08 03:05:53;;;;;;;19.70;15.00;;;13.90;99.90;;;;;;5065212;28;20024;-74
2021/09/08 03:08:19;;;;;;;19.33;14.52;;;14.00;99.90;;;;;;5064909;28;20077;-75
2021/09/08 03:10:44;;;;;;;16.20;14.50;;;14.00;99.90;;;;;;5066590;28;20021;-74
2021/09/08 03:13:14;;;;;;;20.90;14.80;;;13.90;99.90;;;;;;5061643;28;20028;-75
2021/09/08 03:15:40;;;;;;;20.33;16.52;;;13.90;99.90;;;;;;5053519;28;20098;-75
2021/09/08 03:18:07;;;;;;;18.33;15.23;;;13.80;99.90;;;;;;5064139;28;20059;-74
2021/09/08 03:20:32;;;;;;;16.73;14.45;;;13.80;99.90;;;;;;5070348;28;20017;-74
2021/09/08 03:22:58;;;;;;;17.77;15.38;;;13.90;99.90;;;;;;5074610;28;20134;-74
2021/09/08 03:25:24;;;;;;;16.88;15.20;;;13.90;99.90;;;;;;5067666;28;20033;-73
2021/09/08 03:27:49;;;;;;;25.90;14.95;;;13.90;99.90;;;;;;5073488;28;20094;-75
2021/09/08 03:30:15;;;;;;;20.00;15.70;;;13.80;99.90;;;;;;5071221;28;20023;-74
2021/09/08 03:32:41;;;;;;;16.42;14.73;;;13.80;99.90;;;;;;5071630;28;20028;-74
2021/09/08 03:35:07;;;;;;;19.65;15.73;;;13.70;99.90;;;;;;5073625;28;20021;-73
2021/09/08 03:37:32;;;;;;;18.95;15.00;;;13.70;99.90;;;;;;5063266;28;20528;-74
2021/09/08 03:39:58;;;;;;;16.60;14.85;;;13.70;99.90;;;;;;5063223;28;20108;-74
2021/09/08 03:42:24;;;;;;;18.23;14.50;;;13.70;99.90;;;;;;5062441;28;20131;-75
2021/09/08 03:44:50;;;;;;;20.70;14.43;;;13.70;99.90;;;;;;5064077;28;20044;-74
2021/09/08 03:47:16;;;;;;;22.02;14.98;;;13.60;99.90;;;;;;5057918;28;20071;-74
2021/09/08 03:49:45;;;;;;;20.67;16.02;;;13.60;99.90;;;;;;5062826;28;20024;-74
2021/09/08 03:52:14;;;;;;;17.92;15.15;;;13.50;99.90;;;;;;5066060;28;20070;-75
2021/09/08 03:54:40;;;;;;;17.90;15.43;;;13.50;99.90;;;;;;5057856;28;20024;-74
2021/09/08 03:57:06;;;;;;;16.70;14.32;;;13.50;99.90;;;;;;5060291;28;20021;-75
2021/09/08 03:59:32;;;;;;;19.63;14.45;;;13.40;99.90;;;;;;5049851;28;20041;-74
2021/09/08 04:01:58;;;;;;;18.38;15.10;;;13.40;99.90;;;;;;5060521;28;20092;-75
2021/09/08 04:04:24;;;;;;;21.60;14.98;;;13.40;99.90;;;;;;5061142;28;20025;-75
2021/09/08 04:06:50;;;;;;;15.70;14.05;;;13.50;99.90;;;;;;5072334;28;20383;-74
2021/09/08 04:09:16;;;;;;;17.02;15.23;;;13.40;99.90;;;;;;5060541;28;20087;-74
2021/09/08 04:11:42;;;;;;;18.02;14.20;;;13.40;99.90;;;;;;5062658;28;20028;-75
2021/09/08 04:14:08;;;;;;;17.73;14.85;;;13.40;99.90;;;;;;5068945;28;20028;-74
2021/09/08 04:16:34;;;;;;;18.40;15.10;;;13.40;99.90;;;;;;5066243;28;20116;-74
2021/09/08 04:19:00;;;;;;;18.55;14.27;;;13.30;99.90;;;;;;5063230;28;20436;-73
2021/09/08 04:21:25;;;;;;;17.77;14.77;;;13.30;99.90;;;;;;5066110;28;20086;-75
2021/09/08 04:23:51;;;;;;;17.67;15.77;;;13.30;99.90;;;;;;5066664;28;20465;-75
2021/09/08 04:26:16;;;;;;;21.42;16.15;;;13.30;99.90;;;;;;5063364;28;20214;-74
2021/09/08 04:28:42;;;;;;;20.27;15.98;;;13.30;99.90;;;;;;5067534;28;20025;-74
2021/09/08 04:31:07;;;;;;;18.63;15.57;;;13.30;99.90;;;;;;5070894;28;20024;-75
2021/09/08 04:33:33;;;;;;;23.13;16.77;;;13.20;99.90;;;;;;5063381;28;20342;-75
2021/09/08 04:35:59;;;;;;;23.75;16.83;;;13.20;99.90;;;;;;5068823;28;20104;-74
2021/09/08 04:38:24;;;;;;;21.38;15.55;;;13.20;99.90;;;;;;5064200;28;20033;-75
2021/09/08 04:40:50;;;;;;;22.23;16.27;;;13.20;99.90;;;;;;5063473;28;20029;-75
2021/09/08 04:43:16;;;;;;;21.77;15.82;;;13.30;99.90;;;;;;5066398;28;20115;-75
2021/09/08 04:45:42;;;;;;;24.00;17.90;;;13.30;99.90;;;;;;5055200;28;20024;-74
2021/09/08 04:48:08;;;;;;;29.17;16.67;;;13.30;99.90;;;;;;5062365;28;20612;-74
2021/09/08 04:50:33;;;;;;;26.92;16.88;;;13.30;99.90;;;;;;5058457;28;20103;-76
2021/09/08 04:52:59;;;;;;;20.95;16.77;;;13.30;99.90;;;;;;5062635;28;20024;-75
2021/09/08 04:55:24;;;;;;;20.17;17.48;;;13.30;99.90;;;;;;5063253;28;20295;-74
2021/09/08 04:57:50;;;;;;;21.25;17.30;;;13.40;99.90;;;;;;5061518;28;20057;-75
2021/09/08 05:00:16;;;;;;;19.40;16.83;;;13.30;99.90;;;;;;5063047;28;20064;-75
2021/09/08 05:02:41;;;;;;;21.40;17.50;;;13.30;99.90;;;;;;5064550;28;20052;-74
2021/09/08 05:05:07;;;;;;;22.67;17.50;;;13.40;99.90;;;;;;5066169;28;20017;-74
2021/09/08 05:07:33;;;;;;;20.25;16.42;;;13.60;99.90;;;;;;5065514;28;20479;-74
2021/09/08 05:09:58;;;;;;;25.30;16.95;;;13.70;99.90;;;;;;5074715;28;20121;-75
2021/09/08 05:12:24;;;;;;;18.67;15.63;;;14.00;99.90;;;;;;5064606;28;20059;-75
2021/09/08 05:14:49;;;;;;;19.58;15.98;;;14.10;99.90;;;;;;5064874;28;20032;-75
2021/09/08 05:17:15;;;;;;;22.67;16.27;;;14.40;99.90;;;;;;5063501;28;20373;-74
2021/09/08 05:19:40;;;;;;;25.00;16.15;;;14.50;99.90;;;;;;5058778;28;20064;-74
2021/09/08 05:22:06;;;;;;;20.92;16.30;;;14.60;99.90;;;;;;5059346;28;20090;-75
2021/09/08 05:24:32;;;;;;;19.10;14.45;;;14.80;99.90;;;;;;5065245;28;20025;-75
2021/09/08 05:26:58;;;;;;;17.77;13.95;;;15.10;99.90;;;;;;5061020;28;20014;-74
2021/09/08 05:29:24;;;;;;;18.88;14.55;;;15.20;99.90;;;;;;5070719;28;20107;-74
2021/09/08 05:31:50;;;;;;;18.80;14.43;;;15.40;99.90;;;;;;5067329;28;20477;-75
2021/09/08 05:34:15;;;;;;;20.00;15.07;;;15.30;99.90;;;;;;5062417;28;20095;-75
2021/09/08 05:36:41;;;;;;;24.25;15.43;;;15.30;99.90;;;;;;5064015;28;20029;-75
2021/09/08 05:39:06;;;;;;;17.40;14.43;;;15.30;99.90;;;;;;5063765;28;20031;-75
2021/09/08 05:41:32;;;;;;;20.23;15.50;;;15.60;99.90;;;;;;5061237;28;20029;-75
2021/09/08 05:44:00;;;;;;;21.00;15.73;;;15.50;99.90;;;;;;5062074;28;20457;-74
2021/09/08 05:46:25;;;;;;;19.48;14.85;;;15.50;99.90;;;;;;5061768;28;20056;-74
2021/09/08 05:48:51;;;;;;;18.55;13.98;;;15.50;99.90;;;;;;5062639;28;20059;-75
2021/09/08 05:51:16;;;;;;;17.73;14.02;;;15.50;99.90;;;;;;5060116;28;20024;-74
2021/09/08 05:53:42;;;;;;;29.48;14.88;;;15.60;99.90;;;;;;5059431;28;20025;-74
2021/09/08 05:56:07;;;;;;;20.90;15.48;;;15.60;99.90;;;;;;5054001;28;20392;-74
2021/09/08 05:58:33;;;;;;;19.58;14.93;;;15.60;99.90;;;;;;5064169;28;20081;-73
2021/09/08 06:00:58;;;;;;;19.85;14.48;;;15.50;99.90;;;;;;5063605;28;20024;-75
2021/09/08 06:03:24;;;;;;;24.80;16.15;;;15.40;99.90;;;;;;5064715;28;20032;-74
2021/09/08 06:05:52;;;;;;;18.40;16.35;;;15.40;99.90;;;;;;5064350;28;20027;-74
2021/09/08 06:08:18;;;;;;;23.27;16.17;;;15.30;99.90;;;;;;5060672;28;20021;-74
2021/09/08 06:10:43;;;;;;;24.98;17.10;;;15.30;99.90;;;;;;5059441;28;20033;-75
2021/09/08 06:13:09;;;;;;;28.30;16.13;;;15.30;99.90;;;;;;5064731;28;20544;-75
2021/09/08 06:15:35;;;;;;;24.67;17.50;;;15.40;99.90;;;;;;5056846;28;20393;-76
2021/09/08 06:18:02;;;;;;;22.13;16.98;;;15.40;99.90;;;;;;5064744;28;20020;-75
2021/09/08 06:20:29;;;;;;;22.48;17.63;;;15.50;99.90;;;;;;5059767;28;20106;-75
2021/09/08 06:22:55;;;;;;;27.13;18.00;;;15.60;99.90;;;;;;5064660;28;20069;-75
2021/09/08 06:25:20;;;;;;;22.88;15.43;;;15.80;99.90;;;;;;5059512;28;20028;-75
2021/09/08 06:27:46;;;;;;;24.45;16.13;;;16.00;99.90;;;;;;5066707;28;20082;-76
2021/09/08 06:30:11;;;;;;;21.60;16.77;;;16.20;99.90;;;;;;5061451;28;20025;-76
2021/09/08 06:32:37;;;;;;;23.23;17.77;;;16.40;99.90;;;;;;5073087;28;20029;-76
2021/09/08 06:35:03;;;;;;;23.55;16.10;;;16.50;99.90;;;;;;5060082;28;20461;-77
2021/09/08 06:37:29;;;;;;;25.17;15.85;;;16.40;99.90;;;;;;5051943;28;20021;-77
2021/09/08 06:39:54;;;;;;;24.55;18.13;;;16.50;99.90;;;;;;5058104;28;20488;-76
2021/09/08 06:42:20;;;;;;;23.50;17.23;;;16.50;99.90;;;;;;5065183;28;20031;-77
2021/09/08 06:44:49;;;;;;;21.15;17.45;;;16.60;99.90;;;;;;5066284;28;20016;-76
2021/09/08 06:47:15;;;;;;;22.75;17.92;;;16.60;99.90;;;;;;5063821;28;20387;-77
2021/09/08 06:49:41;;;;;;;27.92;17.27;;;16.60;99.90;;;;;;5063070;28;20029;-77
2021/09/08 06:52:07;;;;;;;20.98;16.48;;;16.70;99.90;;;;;;5051814;28;20025;-77
2021/09/08 06:54:32;;;;;;;26.67;15.52;;;16.80;99.90;;;;;;5051306;28;20039;-73
2021/09/08 06:56:58;;;;;;;22.67;15.80;;;16.90;99.90;;;;;;5050841;28;20488;-75
2021/09/08 06:59:23;;;;;;;22.33;14.85;;;17.00;99.90;;;;;;5054245;28;20028;-77
2021/09/08 07:01:49;;;;;;;21.65;14.80;;;17.10;99.90;;;;;;5055788;28;20047;-76
2021/09/08 07:04:14;;;;;;;23.92;14.30;;;17.20;99.90;;;;;;5062073;28;20017;-78
2021/09/08 07:06:40;;;;;;;16.40;14.27;;;17.40;99.90;;;;;;5054683;28;20025;-76
2021/09/08 07:09:05;;;;;;;18.83;14.63;;;17.50;99.90;;;;;;5060215;28;20057;-76
2021/09/08 07:11:31;;;;;;;15.23;13.00;;;17.70;99.90;;;;;;5057586;28;20032;-75
2021/09/08 07:13:57;;;;;;;14.90;13.40;;;17.80;99.90;;;;;;5064528;28;20095;-76
2021/09/08 07:16:22;;;;;;;13.55;12.15;;;17.90;99.90;;;;;;5072917;28;20514;-75
2021/09/08 07:18:48;;;;;;;17.60;11.88;;;17.80;99.90;;;;;;5072570;28;20028;-75
2021/09/08 07:21:13;;;;;;;13.57;11.77;;;17.90;99.90;;;;;;5072459;28;20051;-75
2021/09/08 07:23:39;;;;;;;16.92;12.45;;;17.90;99.90;;;;;;5072884;28;20020;-75
2021/09/08 07:26:04;;;;;;;17.35;13.00;;;17.90;99.90;;;;;;5072516;28;20103;-75
2021/09/08 07:28:30;;;;;;;13.73;12.35;;;17.90;99.90;;;;;;5072976;28;20032;-76
2021/09/08 07:30:56;;;;;;;22.52;11.75;;;18.20;99.90;;;;;;5076002;28;20023;-76
2021/09/08 07:33:23;;;;;;;17.95;11.15;;;18.30;99.90;;;;;;5084193;28;20021;-75
2021/09/08 07:35:49;;;;;;;11.85;10.07;;;18.40;99.90;;;;;;5084800;28;20024;-75
2021/09/08 07:38:15;;;;;;;14.20;11.98;;;18.40;99.90;;;;;;5085878;28;20016;-75
2021/09/08 07:40:41;;;;;;;12.25;10.25;;;18.40;99.90;;;;;;5087417;28;20032;-75
2021/09/08 07:43:07;;;;;;;15.82;11.52;;;18.60;99.90;;;;;;5089077;28;20025;-75
2021/09/08 07:45:32;;;;;;;12.38;10.43;;;18.70;99.90;;;;;;5077397;28;20041;-75
2021/09/08 07:47:58;;;;;;;11.13;9.70;;;18.90;99.90;;;;;;5063232;28;20083;-74
2021/09/08 07:50:24;;;;;;;13.43;10.20;;;18.90;99.90;;;;;;5056921;28;20033;-76
2021/09/08 07:52:49;;;;;;;14.80;9.82;;;18.90;99.90;;;;;;5055671;28;20021;-75
2021/09/08 07:55:15;;;;;;;13.18;10.18;;;19.00;99.90;;;;;;5053343;28;20036;-75
2021/09/08 07:57:41;;;;;;;10.32;9.23;;;19.10;99.90;;;;;;5053615;28;20082;-75
2021/09/08 08:00:07;;;;;;;10.75;9.55;;;19.30;99.90;;;;;;5052976;28;20033;-75
2021/09/08 08:02:45;;;;;;;10.75;9.30;;;19.20;99.90;;;;;;5085092;28;20025;-76
2021/09/08 08:05:11;;;;;;;11.13;8.30;;;19.10;99.90;;;;;;5053834;28;20020;-75
2021/09/08 08:07:37;;;;;;;9.65;8.65;;;19.40;99.90;;;;;;5051547;28;20465;-74
2021/09/08 08:10:03;;;;;;;11.18;8.20;;;19.60;99.90;;;;;;5052042;28;20053;-75
2021/09/08 08:12:29;;;;;;;9.00;7.43;;;19.70;99.90;;;;;;5051686;28;20354;-75
2021/09/08 08:14:55;;;;;;;10.50;8.13;;;19.80;99.90;;;;;;5051712;28;20025;-75
2021/09/08 08:17:20;;;;;;;8.40;7.60;;;19.90;99.90;;;;;;5050361;28;20438;-75
2021/09/08 08:19:47;;;;;;;8.60;7.40;;;20.10;99.90;;;;;;5050588;28;20052;-75
2021/09/08 08:22:14;;;;;;;8.48;7.57;;;20.00;99.90;;;;;;5052199;28;20231;-75
2021/09/08 08:24:39;;;;;;;9.20;7.63;;;20.00;99.90;;;;;;5054258;28;20115;-74
2021/09/08 08:27:05;;;;;;;10.02;7.22;;;20.30;99.90;;;;;;5050592;28;20558;-75
2021/09/08 08:29:30;;;;;;;8.25;7.45;;;20.50;99.90;;;;;;5051860;28;20025;-76
2021/09/08 08:31:56;;;;;;;9.40;8.07;;;20.60;99.90;;;;;;5051620;28;20031;-75
2021/09/08 08:34:22;;;;;;;9.73;8.15;;;20.60;99.90;;;;;;5052070;28;20029;-74
2021/09/08 08:36:47;;;;;;;9.18;7.75;;;20.50;99.90;;;;;;5051861;28;20399;-75
2021/09/08 08:39:13;;;;;;;8.98;7.80;;;20.50;99.90;;;;;;5051939;28;20048;-75
2021/09/08 08:41:38;;;;;;;13.45;8.23;;;20.50;99.90;;;;;;5050518;28;20503;-75
2021/09/08 08:44:04;;;;;;;7.82;6.90;;;20.60;99.90;;;;;;5051952;28;20025;-76
2021/09/08 08:46:30;;;;;;;8.20;7.40;;;20.80;99.90;;;;;;5032088;28;20047;-75
2021/09/08 08:48:56;;;;;;;8.15;7.32;;;20.90;99.90;;;;;;5032664;28;20036;-75
2021/09/08 08:51:23;;;;;;;11.43;7.55;;;21.20;99.90;;;;;;5032270;28;20032;-75
2021/09/08 08:53:49;;;;;;;8.63;7.00;;;21.20;99.90;;;;;;5030821;28;20025;-74
2021/09/08 08:56:15;;;;;;;8.38;7.47;;;21.40;99.90;;;;;;5031039;28;20026;-75
2021/09/08 08:58:41;;;;;;;8.18;7.32;;;21.40;99.90;;;;;;5032068;28;20025;-74
2021/09/08 09:01:24;;;;;;;8.20;6.82;;;21.50;99.90;;;;;;5032157;28;20017;-75
2021/09/08 09:04:07;;;;;;;10.10;7.53;;;21.50;99.90;;;;;;5036018;28;20064;-75
2021/09/08 09:06:38;;;;;;;11.32;8.18;;;21.70;99.90;;;;;;5035764;28;20017;-76
2021/09/08 09:09:07;;;;;;;10.60;7.88;;;21.50;99.90;;;;;;5036083;28;20501;-75
2021/09/08 09:11:34;;;;;;;9.68;7.10;;;21.60;99.90;;;;;;5034500;28;20025;-76
2021/09/08 09:14:02;;;;;;;9.23;7.35;;;21.80;99.90;;;;;;5036211;28;20095;-75
2021/09/08 09:16:28;;;;;;;9.52;8.45;;;22.00;99.90;;;;;;5036368;28;20030;-75
2021/09/08 09:18:54;;;;;;;10.63;7.30;;;22.10;99.90;;;;;;5050880;28;20111;-74
2021/09/08 09:21:23;;;;;;;9.30;8.32;;;22.10;99.90;;;;;;5070694;28;20564;-75
2021/09/08 09:23:50;;;;;;;7.90;7.03;;;22.30;99.90;;;;;;5036455;28;20025;-74
2021/09/08 09:26:22;;;;;;;8.00;7.20;;;22.40;99.90;;;;;;5035876;28;20049;-74
2021/09/08 09:28:48;;;;;;;9.52;7.97;;;22.60;99.90;;;;;;5034752;28;20025;-75
2021/09/08 09:31:22;;;;;;;9.65;8.20;;;22.50;99.90;;;;;;5035108;28;20032;-74
2021/09/08 09:33:54;;;;;;;10.20;7.78;;;22.40;99.90;;;;;;5035761;28;20060;-75
2021/09/08 09:36:25;;;;;;;8.23;6.95;;;22.30;99.90;;;;;;5034521;28;20686;-75
2021/09/08 09:38:54;;;;;;;10.52;7.03;;;22.70;99.90;;;;;;5036340;28;20084;-75
2021/09/08 09:41:25;;;;;;;8.40;7.55;;;22.90;99.90;;;;;;5036305;28;20093;-75
2021/09/08 09:43:50;;;;;;;8.25;6.97;;;22.70;99.90;;;;;;5035804;28;20031;-75
2021/09/08 09:46:16;;;;;;;7.35;6.65;;;23.10;99.90;;;;;;5053309;28;20021;-76
2021/09/08 09:48:42;;;;;;;10.65;6.97;;;23.00;99.90;;;;;;5055333;28;20512;-75
2021/09/08 09:51:10;;;;;;;7.93;6.82;;;22.90;99.90;;;;;;5054402;28;20082;-75
2021/09/08 09:53:36;;;;;;;9.15;6.93;;;23.00;99.90;;;;;;5052842;28;20032;-75
2021/09/08 09:56:02;;;;;;;7.07;6.43;;;22.90;99.60;;;;;;5053167;28;20025;-74
2021/09/08 09:58:27;;;;;;;9.38;5.95;;;23.20;99.10;;;;;;5054549;28;20021;-74
2021/09/08 10:00:53;;;;;;;9.95;5.88;;;23.30;99.00;;;;;;5054579;28;20158;-76
2021/09/08 10:03:22;;;;;;;7.03;5.88;;;23.40;98.40;;;;;;5054595;28;20036;-75
2021/09/08 10:05:49;;;;;;;7.63;6.28;;;23.30;98.20;;;;;;5055645;28;20032;-74
2021/09/08 10:08:19;;;;;;;6.63;5.95;;;23.60;98.20;;;;;;5054772;28;20027;-76
2021/09/08 10:10:47;;;;;;;6.55;5.95;;;23.60;98.10;;;;;;5054278;28;20553;-76
2021/09/08 10:13:20;;;;;;;7.00;6.15;;;23.70;97.70;;;;;;5054044;28;20039;-76
2021/09/08 10:15:48;;;;;;;6.10;5.45;;;23.60;97.70;;;;;;5053300;28;20532;-75
2021/09/08 10:18:14;;;;;;;6.65;6.05;;;23.80;97.40;;;;;;5053442;28;20052;-75
2021/09/08 10:20:43;;;;;;;8.50;5.80;;;23.80;97.40;;;;;;5054281;28;20041;-74
2021/09/08 10:23:11;;;;;;;9.68;6.10;;;23.90;97.50;;;;;;5052593;28;20025;-76
2021/09/08 10:25:43;;;;;;;6.60;5.60;;;23.90;97.60;;;;;;5053112;28;20449;-76
2021/09/08 10:28:14;;;;;;;8.35;5.50;;;23.90;97.30;;;;;;5055291;28;20092;-76
2021/09/08 10:30:42;;;;;;;7.40;5.75;;;24.10;97.50;;;;;;5053448;28;20021;-76
2021/09/08 10:33:08;;;;;;;7.43;5.88;;;24.20;96.70;;;;;;5053874;28;20021;-75
2021/09/08 10:35:39;;;;;;;6.65;6.05;;;24.20;97.00;;;;;;5052542;28;20028;-75
2021/09/08 10:38:16;;;;;;;6.05;5.45;;;24.10;96.70;;;;;;5053860;28;20052;-77
2021/09/08 10:40:43;;;;;;;6.38;5.88;;;24.30;97.70;;;;;;5053592;28;20025;-75
2021/09/08 10:43:09;;;;;;;6.35;5.75;;;24.20;97.00;;;;;;5051893;28;20021;-74
2021/09/08 10:45:35;;;;;;;7.82;6.03;;;24.20;97.30;;;;;;5053491;28;20061;-75
2021/09/08 10:48:03;;;;;;;8.27;6.32;;;24.50;96.30;;;;;;5053848;28;20503;-74
2021/09/08 10:50:34;;;;;;;8.57;6.10;;;24.50;95.90;;;;;;5053943;28;20036;-75
2021/09/08 10:53:04;;;;;;;8.50;6.10;;;24.50;95.70;;;;;;5051979;28;20515;-75
2021/09/08 10:55:43;;;;;;;5.93;5.32;;;24.30;96.20;;;;;;5051740;28;20040;-75
2021/09/08 10:58:09;;;;;;;7.65;5.97;;;24.30;96.60;;;;;;5053136;28;20024;-74
2021/09/08 11:00:37;;;;;;;6.55;5.70;;;24.50;96.90;;;;;;5052860;28;20029;-75
2021/09/08 11:03:06;;;;;;;6.63;5.82;;;24.50;97.20;;;;;;5053155;28;20110;-75
2021/09/08 11:05:55;;;;;;;6.03;5.43;;;24.70;96.80;;;;;;5052970;28;20025;-75
2021/09/08 11:08:21;;;;;;;7.88;5.25;;;24.70;95.90;;;;;;5052028;28;20392;-75
2021/09/08 11:10:46;;;;;;;6.28;5.68;;;25.00;94.90;;;;;;5053083;28;20021;-75
2021/09/08 11:13:12;;;;;;;6.28;5.68;;;25.00;95.20;;;;;;5058089;28;20040;-73
2021/09/08 11:15:39;;;;;;;5.82;5.32;;;24.90;95.00;;;;;;5064618;28;20029;-74
2021/09/08 11:18:14;;;;;;;6.20;5.60;;;25.00;94.50;;;;;;5052327;28;20029;-75
2021/09/08 11:20:40;;;;;;;6.38;5.13;;;25.20;94.70;;;;;;5051662;28;20032;-75
2021/09/08 11:23:13;;;;;;;7.45;5.60;;;25.20;94.40;;;;;;5052265;28;20032;-75
2021/09/08 11:25:40;;;;;;;6.05;5.38;;;25.20;94.00;;;;;;5052487;28;20013;-75
2021/09/08 11:28:10;;;;;;;5.78;5.25;;;25.30;94.40;;;;;;5051658;28;20052;-75
2021/09/08 11:30:38;;;;;;;9.30;5.78;;;25.30;94.00;;;;;;5052384;28;20507;-75
2021/09/08 11:33:04;;;;;;;8.27;5.93;;;25.30;94.20;;;;;;5053875;28;20029;-75
2021/09/08 11:35:40;;;;;;;6.43;5.80;;;25.40;94.30;;;;;;5052728;28;20380;-75
2021/09/08 11:38:16;;;;;;;5.88;5.28;;;25.30;94.10;;;;;;5052348;28;20036;-75
2021/09/08 11:40:44;;;;;;;7.65;5.50;;;25.30;94.90;;;;;;5052301;28;20024;-76
2021/09/08 11:43:10;;;;;;;6.15;5.53;;;25.20;93.70;;;;;;5052179;28;20024;-76
2021/09/08 11:45:37;;;;;;;8.80;5.90;;;25.10;94.40;;;;;;5050387;28;20392;-75
2021/09/08 11:48:02;;;;;;;8.55;5.30;;;25.20;94.60;;;;;;5052423;28;20024;-77
2021/09/08 11:50:28;;;;;;;5.78;5.25;;;25.40;94.10;;;;;;5051870;28;20029;-75
2021/09/08 11:53:01;;;;;;;6.05;5.55;;;25.50;93.10;;;;;;5052868;28;20507;-76
2021/09/08 11:55:38;;;;;;;5.75;5.25;;;25.70;93.50;;;;;;5052893;28;20021;-74
2021/09/08 11:58:22;;;;;;;5.30;4.65;;;25.60;92.90;;;;;;5052096;28;20383;-75
2021/09/08 12:01:14;;;;;;;7.45;5.18;;;25.70;92.90;;;;;;5050478;28;20043;-76
2021/09/08 12:03:42;;;;;;;6.45;5.30;;;25.40;92.60;;;;;;5050108;28;20029;-75
2021/09/08 12:06:12;;;;;;;6.18;5.40;;;25.70;92.90;;;;;;5051320;28;20102;-74
2021/09/08 12:08:50;;;;;;;5.28;4.78;;;25.90;92.20;;;;;;5052751;28;20045;-75
2021/09/08 12:11:36;;;;;;;5.50;4.97;;;26.10;92.00;;;;;;5052711;28;20096;-74
2021/09/08 12:14:40;;;;;;;6.05;4.75;;;26.20;91.60;;;;;;5052008;28;20116;-74
2021/09/08 12:17:12;;;;;;;5.68;5.18;;;26.20;91.00;;;;;;5052139;28;20022;-75
2021/09/08 12:19:39;;;;;;;6.65;5.47;;;26.10;90.90;;;;;;5055115;28;20035;-75
2021/09/08 12:22:37;;;;;;;6.78;4.68;;;26.00;91.00;;;;;;5052471;28;20396;-74
2021/09/08 12:25:06;;;;;;;6.38;5.18;;;26.00;91.30;;;;;;5050424;28;20381;-75
2021/09/08 12:27:39;;;;;;;6.78;5.45;;;25.90;91.40;;;;;;5051705;28;20174;-75
2021/09/08 12:30:14;;;;;;;5.90;5.30;;;25.90;91.40;;;;;;5051934;28;20025;-74
2021/09/08 12:32:54;;;;;;;6.10;5.35;;;26.20;91.40;;;;;;5052225;28;20021;-74